Time;durP1;ratioP1;P1;durP2;ratioP2;P2;SDS_P1;SDS_P2;PMS_P1;PMS_P2;Temp;Humidity;BMP_temperature;BMP_pressure;BME280_temperature;BME280_humidity;BME280_pressure;Samples;Min_cycle;Max_cycle;Signal;HPM_P1;HPM_P2
2023/09/29 00:01:39;;;;;;;10.40;7.65;;;;;;;18.13;50.70;99419.06;5105983;28;20080;-75
2023/09/29 00:04:08;;;;;;;7.95;6.88;;;;;;;18.53;50.85;99480.94;5105992;28;20226;-74
2023/09/29 00:06:35;;;;;;;10.70;7.97;;;;;;;18.77;51.03;99545.06;5107087;28;20052;-75
2023/09/29 00:09:06;;;;;;;12.65;7.72;;;;;;;18.72;50.78;99534.72;5107293;28;20040;-75
2023/09/29 00:11:33;;;;;;;9.93;6.85;;;;;;;18.18;51.06;99451.72;5107021;28;20044;-74
2023/09/29 00:14:00;;;;;;;9.40;8.00;;;;;;;18.57;51.17;99536.03;5107259;28;20040;-74
2023/09/29 00:16:27;;;;;;;10.30;7.72;;;;;;;18.69;50.50;99526.09;5106464;28;20204;-74
2023/09/29 00:18:55;;;;;;;11.40;7.95;;;;;;;18.81;50.45;99531.25;5106614;28;20057;-74
2023/09/29 00:21:23;;;;;;;8.85;7.88;;;;;;;18.78;50.20;99527.97;5106840;28;20052;-74
2023/09/29 00:23:49;;;;;;;8.13;6.32;;;;;;;18.77;51.06;99535.19;5106362;28;20040;-74
2023/09/29 00:26:16;;;;;;;7.88;6.45;;;;;;;18.76;50.69;99536.16;5106558;28;20299;-74
2023/09/29 00:28:44;;;;;;;7.90;7.10;;;;;;;18.84;50.53;99541.72;5107024;28;20131;-74
2023/09/29 00:31:11;;;;;;;9.23;7.30;;;;;;;18.79;50.54;99538.59;5106673;28;20097;-74
2023/09/29 00:33:37;;;;;;;8.30;7.30;;;;;;;18.77;50.71;99537.88;5106347;28;20334;-74
2023/09/29 00:36:04;;;;;;;7.82;7.03;;;;;;;18.78;50.50;99541.41;5106850;28;20105;-74
2023/09/29 00:38:33;;;;;;;9.70;7.40;;;;;;;18.69;51.14;99539.50;5106522;28;20051;-74
2023/09/29 00:41:00;;;;;;;9.73;7.95;;;;;;;18.69;51.28;99540.38;5106280;28;20089;-74
2023/09/29 00:43:27;;;;;;;9.80;8.02;;;;;;;18.47;50.94;99502.91;5106089;28;20100;-74
2023/09/29 00:45:55;;;;;;;9.73;7.88;;;;;;;18.59;50.87;99544.81;5106716;28;20107;-74
2023/09/29 00:48:22;;;;;;;8.32;7.43;;;;;;;18.42;51.75;99548.91;5106119;28;20036;-74
2023/09/29 00:50:49;;;;;;;10.95;7.78;;;;;;;18.49;51.84;99539.34;5105121;28;20040;-74
2023/09/29 00:53:19;;;;;;;9.93;7.72;;;;;;;18.39;51.94;99541.13;5106273;28;20086;-74
2023/09/29 00:55:48;;;;;;;14.15;7.22;;;;;;;18.12;51.84;99498.69;5105083;28;20234;-74
2023/09/29 00:58:17;;;;;;;10.30;7.40;;;;;;;17.79;51.63;99464.81;5105752;28;20047;-74
2023/09/29 01:00:45;;;;;;;10.05;7.45;;;;;;;18.44;51.96;99540.72;5106452;28;20276;-74
2023/09/29 01:03:14;;;;;;;9.00;6.55;;;;;;;16.94;51.88;99281.66;5106066;28;20066;-74
2023/09/29 01:05:43;;;;;;;8.18;7.22;;;;;;;18.34;51.92;99534.44;5106416;28;20050;-74
2023/09/29 01:08:12;;;;;;;9.57;7.65;;;;;;;17.84;52.38;99467.13;5106121;28;20085;-74
2023/09/29 01:10:40;;;;;;;18.20;6.97;;;;;;;18.31;52.71;99537.38;5106112;28;20040;-74
2023/09/29 01:13:09;;;;;;;10.63;7.65;;;;;;;18.36;52.39;99536.00;5105806;28;20089;-74
2023/09/29 01:15:37;;;;;;;8.27;6.97;;;;;;;18.26;52.85;99530.56;5106203;28;20280;-74
2023/09/29 01:18:06;;;;;;;10.93;7.50;;;;;;;18.23;53.15;99533.50;5105611;28;20169;-74
2023/09/29 01:20:34;;;;;;;10.90;8.48;;;;;;;17.99;52.71;99479.25;5106188;28;20264;-74
2023/09/29 01:23:03;;;;;;;9.68;7.80;;;;;;;17.99;53.07;99537.38;5106099;28;20040;-74
2023/09/29 01:25:31;;;;;;;8.73;7.07;;;;;;;17.27;52.74;99377.16;5104741;28;20043;-74
2023/09/29 01:27:59;;;;;;;9.32;7.55;;;;;;;18.17;53.40;99527.81;5105965;28;20120;-74
2023/09/29 01:30:27;;;;;;;9.23;7.95;;;;;;;17.92;53.55;99486.94;5105873;28;20101;-73
2023/09/29 01:32:57;;;;;;;11.38;8.13;;;;;;;18.17;53.30;99525.97;5106081;28;20105;-74
2023/09/29 01:35:25;;;;;;;8.38;6.68;;;;;;;17.83;53.53;99477.00;5110483;28;20062;-74
2023/09/29 01:37:53;;;;;;;8.98;8.07;;;;;;;17.86;53.19;99475.88;5109438;28;20036;-74
2023/09/29 01:40:22;;;;;;;9.05;7.70;;;;;;;17.50;53.68;99436.88;5109087;28;20059;-74
2023/09/29 01:42:52;;;;;;;10.23;6.80;;;;;;;18.06;53.57;99517.97;5108708;28;20048;-74
2023/09/29 01:45:21;;;;;;;8.23;7.15;;;;;;;17.41;53.82;99435.78;5108683;28;20334;-74
2023/09/29 01:47:49;;;;;;;9.68;7.63;;;;;;;18.05;53.84;99518.09;5110131;28;20032;-74
2023/09/29 01:50:20;;;;;;;11.05;7.07;;;;;;;18.02;53.66;99515.69;5109626;28;20064;-74
2023/09/29 01:52:48;;;;;;;9.18;7.53;;;;;;;18.02;53.56;99523.72;5108541;28;20291;-74
2023/09/29 01:55:16;;;;;;;9.65;8.05;;;;;;;18.01;53.47;99528.22;5109667;28;20044;-74
2023/09/29 01:57:43;;;;;;;10.18;7.72;;;;;;;18.06;53.71;99527.84;5109045;28;20230;-74
2023/09/29 02:00:14;;;;;;;9.60;8.00;;;;;;;16.48;53.66;99273.84;5109563;28;20261;-74
2023/09/29 02:02:43;;;;;;;8.73;7.82;;;;;;;17.92;54.33;99526.31;5109740;28;20046;-74
2023/09/29 02:05:11;;;;;;;13.23;8.63;;;;;;;17.88;54.20;99530.22;5109786;28;20226;-74
2023/09/29 02:07:38;;;;;;;13.63;8.15;;;;;;;17.93;54.16;99523.50;5109427;28;20060;-74
2023/09/29 02:10:07;;;;;;;12.77;7.95;;;;;;;17.87;54.01;99523.16;5109383;28;20047;-74
2023/09/29 02:12:34;;;;;;;9.77;8.77;;;;;;;17.86;54.20;99529.50;5091471;28;20059;-74
2023/09/29 02:15:06;;;;;;;9.63;8.35;;;;;;;17.82;54.46;99533.41;5109305;28;20036;-73
2023/09/29 02:17:36;;;;;;;10.63;7.78;;;;;;;17.51;54.58;99473.41;5108915;28;20193;-74
2023/09/29 02:20:12;;;;;;;9.52;7.72;;;;;;;17.82;54.36;99526.22;5109211;28;20056;-74
2023/09/29 02:22:39;;;;;;;11.20;8.32;;;;;;;17.76;54.71;99525.88;5109050;28;20178;-74
2023/09/29 02:25:07;;;;;;;10.70;8.25;;;;;;;17.72;54.44;99530.63;5108963;28;20101;-74
2023/09/29 02:27:36;;;;;;;8.18;6.72;;;;;;;17.71;54.60;99541.47;5108740;28;20153;-73
2023/09/29 02:30:03;;;;;;;8.18;7.10;;;;;;;17.78;54.04;99545.38;5108748;28;20047;-74
2023/09/29 02:32:29;;;;;;;10.90;8.45;;;;;;;17.73;54.61;99540.38;5108467;28;20044;-74
2023/09/29 02:34:57;;;;;;;8.00;7.20;;;;;;;17.42;54.40;99493.75;5108602;28;20089;-73
2023/09/29 02:37:24;;;;;;;10.63;8.32;;;;;;;17.58;55.17;99537.09;5108341;28;20043;-74
2023/09/29 02:39:51;;;;;;;10.88;7.70;;;;;;;17.59;54.88;99540.63;5108787;28;20307;-74
2023/09/29 02:42:18;;;;;;;8.60;7.72;;;;;;;17.64;54.69;99535.78;5109003;28;20093;-74
2023/09/29 02:44:45;;;;;;;10.48;8.13;;;;;;;17.58;54.89;99534.41;5106797;28;20044;-74
2023/09/29 02:47:13;;;;;;;12.18;7.88;;;;;;;17.58;54.67;99541.59;5108645;28;20052;-74
2023/09/29 02:49:40;;;;;;;8.77;7.13;;;;;;;17.55;54.77;99536.47;5108406;28;20226;-74
2023/09/29 02:52:09;;;;;;;9.77;7.75;;;;;;;17.56;54.78;99538.19;5108675;28;20070;-74
2023/09/29 02:54:36;;;;;;;11.63;7.93;;;;;;;17.53;54.96;99531.25;5108253;28;20048;-75
2023/09/29 02:57:03;;;;;;;8.35;7.55;;;;;;;17.45;55.02;99538.19;5108786;28;20044;-74
2023/09/29 02:59:33;;;;;;;9.20;7.45;;;;;;;17.45;55.30;99530.16;5107300;28;20294;-75
2023/09/29 03:02:00;;;;;;;9.07;7.95;;;;;;;16.97;55.47;99453.59;5108084;28;20115;-75
2023/09/29 03:04:27;;;;;;;8.63;7.60;;;;;;;17.37;55.34;99536.13;5107868;28;20087;-75
2023/09/29 03:06:53;;;;;;;9.20;7.78;;;;;;;17.40;55.56;99535.03;5108013;28;20093;-74
2023/09/29 03:09:22;;;;;;;10.65;8.80;;;;;;;17.05;55.96;99486.94;5108554;28;20048;-75
2023/09/29 03:11:49;;;;;;;11.90;8.88;;;;;;;17.35;55.57;99535.41;5107861;28;20224;-75
2023/09/29 03:14:16;;;;;;;11.70;8.63;;;;;;;17.30;56.00;99532.25;5107882;28;20039;-75
2023/09/29 03:16:43;;;;;;;11.02;7.57;;;;;;;17.29;55.87;99535.91;5106789;28;20055;-74
2023/09/29 03:19:10;;;;;;;9.73;8.43;;;;;;;17.30;55.77;99527.75;5108176;28;20108;-74
2023/09/29 03:21:37;;;;;;;9.60;8.20;;;;;;;17.29;55.88;99533.22;5107503;28;20048;-75
2023/09/29 03:24:08;;;;;;;24.58;10.50;;;;;;;17.28;55.71;99532.38;5106781;28;20111;-74
2023/09/29 03:26:36;;;;;;;9.82;8.32;;;;;;;17.25;56.05;99526.41;5106781;28;20044;-75
2023/09/29 03:29:03;;;;;;;11.10;7.28;;;;;;;17.29;55.80;99527.88;5108036;28;20039;-75
2023/09/29 03:31:30;;;;;;;10.43;7.78;;;;;;;17.29;55.81;99522.50;5107533;28;20040;-74
2023/09/29 03:33:57;;;;;;;10.40;8.10;;;;;;;17.26;55.95;99526.28;5107775;28;20048;-74
2023/09/29 03:36:24;;;;;;;9.82;7.55;;;;;;;17.13;56.58;99528.22;5106574;28;20040;-74
2023/09/29 03:38:50;;;;;;;9.55;8.23;;;;;;;17.11;56.57;99524.81;5107507;28;20082;-75
2023/09/29 03:41:17;;;;;;;10.20;7.85;;;;;;;17.14;56.37;99526.38;5106509;28;20086;-74
2023/09/29 03:43:45;;;;;;;10.18;7.93;;;;;;;17.12;56.21;99529.19;5107484;28;20044;-74
2023/09/29 03:46:19;;;;;;;8.95;8.10;;;;;;;17.11;56.66;99515.91;5106377;28;20077;-74
2023/09/29 03:48:47;;;;;;;9.93;8.27;;;;;;;17.11;56.24;99527.47;5106284;28;20040;-75
2023/09/29 03:51:22;;;;;;;9.75;8.73;;;;;;;16.98;56.57;99511.53;5106283;28;20046;-74
2023/09/29 03:53:49;;;;;;;12.75;8.95;;;;;;;17.04;56.19;99530.75;5106984;28;20040;-75
2023/09/29 03:56:16;;;;;;;10.20;8.43;;;;;;;16.96;56.33;99528.69;5106793;28;20164;-75
2023/09/29 03:58:45;;;;;;;10.43;8.30;;;;;;;16.76;56.21;99491.94;5106728;28;20082;-75
2023/09/29 04:01:12;;;;;;;9.90;8.00;;;;;;;16.95;56.26;99530.50;5107179;28;20066;-75
2023/09/29 04:03:39;;;;;;;9.65;8.70;;;;;;;16.46;56.66;99468.38;5106928;28;20102;-74
2023/09/29 04:06:06;;;;;;;8.75;7.80;;;;;;;16.91;56.54;99530.88;5106017;28;20039;-75
2023/09/29 04:08:33;;;;;;;10.68;8.02;;;;;;;16.88;56.52;99534.66;5107376;28;20044;-75
2023/09/29 04:11:00;;;;;;;11.13;8.63;;;;;;;16.82;56.96;99531.59;5105945;28;20139;-74
2023/09/29 04:13:29;;;;;;;12.15;9.23;;;;;;;16.85;57.14;99542.06;5106769;28;20046;-75
2023/09/29 04:15:58;;;;;;;13.82;8.32;;;;;;;16.82;56.71;99542.31;5106616;28;20050;-75
2023/09/29 04:18:25;;;;;;;10.38;8.82;;;;;;;16.76;56.51;99540.94;5106399;28;20316;-75
2023/09/29 04:20:52;;;;;;;12.00;10.13;;;;;;;16.74;56.65;99540.22;5106342;28;20231;-74
2023/09/29 04:23:19;;;;;;;16.85;11.82;;;;;;;16.72;57.00;99542.16;5106726;28;20047;-75
2023/09/29 04:25:46;;;;;;;12.80;9.57;;;;;;;16.75;56.91;99541.06;5107128;28;20044;-75
2023/09/29 04:28:14;;;;;;;13.18;9.27;;;;;;;16.40;56.62;99491.09;5106955;28;20196;-74
2023/09/29 04:30:41;;;;;;;9.05;8.20;;;;;;;16.72;56.93;99544.84;5107482;28;20052;-75
2023/09/29 04:33:09;;;;;;;11.10;8.40;;;;;;;16.67;56.50;99541.66;5105804;28;20044;-75
2023/09/29 04:35:36;;;;;;;9.30;8.38;;;;;;;16.65;56.83;99543.56;5106578;28;20044;-75
2023/09/29 04:38:03;;;;;;;9.65;8.55;;;;;;;16.61;57.04;99550.13;5105700;28;20040;-75
2023/09/29 04:40:30;;;;;;;11.38;9.30;;;;;;;16.65;56.53;99560.50;5106028;28;20195;-75
2023/09/29 04:42:58;;;;;;;9.85;8.27;;;;;;;16.65;56.98;99559.63;5106244;28;20043;-74
2023/09/29 04:45:25;;;;;;;11.90;8.93;;;;;;;16.64;56.57;99561.47;5105907;28;20048;-75
2023/09/29 04:47:53;;;;;;;12.82;9.05;;;;;;;16.60;56.89;99556.47;5106409;28;20287;-74
2023/09/29 04:50:21;;;;;;;10.45;8.82;;;;;;;16.53;57.34;99557.91;5106324;28;20103;-75
2023/09/29 04:52:48;;;;;;;9.95;8.85;;;;;;;16.16;57.33;99496.50;5106509;28;20165;-75
2023/09/29 04:55:15;;;;;;;10.40;8.13;;;;;;;16.59;56.64;99555.59;5105948;28;20054;-74
2023/09/29 04:57:41;;;;;;;9.63;8.68;;;;;;;16.59;56.85;99558.28;5105107;28;20039;-75
2023/09/29 05:00:09;;;;;;;9.82;8.82;;;;;;;16.58;57.39;99556.56;5106203;28;20055;-74
2023/09/29 05:02:36;;;;;;;11.77;8.55;;;;;;;16.58;57.37;99558.41;5106373;28;20040;-75
2023/09/29 05:05:03;;;;;;;11.35;9.38;;;;;;;16.59;57.47;99557.44;5105153;28;20039;-75
2023/09/29 05:07:31;;;;;;;12.32;8.93;;;;;;;16.57;57.52;99554.88;5105975;28;20043;-75
2023/09/29 05:09:58;;;;;;;11.15;9.25;;;;;;;16.58;57.40;99559.25;5104985;28;20227;-75
2023/09/29 05:12:24;;;;;;;10.77;8.77;;;;;;;16.56;57.44;99560.34;5105744;28;20044;-75
2023/09/29 05:14:51;;;;;;;12.20;9.30;;;;;;;16.53;57.53;99564.09;5088889;28;20048;-75
2023/09/29 05:17:18;;;;;;;10.40;8.00;;;;;;;16.27;57.17;99512.59;5105491;28;20060;-75
2023/09/29 05:19:46;;;;;;;10.07;8.10;;;;;;;16.59;57.56;99562.78;5104828;28;20047;-74
2023/09/29 05:22:12;;;;;;;15.57;9.30;;;;;;;16.51;57.67;99566.03;5104732;28;20040;-74
2023/09/29 05:24:41;;;;;;;10.55;9.45;;;;;;;16.51;57.74;99565.19;5105695;28;20047;-74
2023/09/29 05:27:07;;;;;;;11.25;8.35;;;;;;;16.43;58.15;99571.13;5105862;28;20043;-75
2023/09/29 05:29:34;;;;;;;13.77;9.52;;;;;;;16.44;58.13;99569.31;5105543;28;20115;-75
2023/09/29 05:32:01;;;;;;;10.77;8.00;;;;;;;16.41;58.06;99570.38;5105487;28;20040;-75
2023/09/29 05:34:28;;;;;;;11.05;9.13;;;;;;;16.41;58.32;99569.53;5105795;28;20040;-75
2023/09/29 05:36:55;;;;;;;12.32;8.25;;;;;;;15.53;58.59;99419.31;5105201;28;20109;-74
2023/09/29 05:39:23;;;;;;;9.82;8.93;;;;;;;16.13;58.56;99525.31;5104788;28;20308;-75
2023/09/29 05:41:51;;;;;;;13.45;7.88;;;;;;;16.09;57.99;99521.16;5106191;28;20051;-75
2023/09/29 05:44:18;;;;;;;9.90;7.90;;;;;;;16.38;58.69;99573.28;5105348;28;20105;-75
2023/09/29 05:46:45;;;;;;;9.07;7.85;;;;;;;16.16;58.61;99547.31;5104978;28;20118;-74
2023/09/29 05:49:11;;;;;;;9.93;8.55;;;;;;;16.40;59.37;99584.72;5105530;28;20044;-75
2023/09/29 05:51:38;;;;;;;8.50;7.68;;;;;;;16.44;58.79;99583.53;5105179;28;20044;-75
2023/09/29 05:54:05;;;;;;;10.10;8.88;;;;;;;16.40;59.47;99581.19;5104888;28;20035;-75
2023/09/29 05:56:32;;;;;;;10.27;8.85;;;;;;;16.41;59.53;99586.44;5105220;28;20097;-75
2023/09/29 05:59:00;;;;;;;11.73;9.25;;;;;;;16.15;59.25;99542.94;5105002;28;20136;-75
2023/09/29 06:01:27;;;;;;;11.80;9.45;;;;;;;16.51;59.05;99592.78;5105218;28;20040;-75
2023/09/29 06:03:54;;;;;;;12.10;8.95;;;;;;;16.53;58.81;99592.69;5105026;28;20048;-75
2023/09/29 06:06:21;;;;;;;13.68;9.40;;;;;;;16.57;59.10;99592.31;5105449;28;20048;-75
2023/09/29 06:08:48;;;;;;;12.73;8.82;;;;;;;16.60;59.38;99602.78;5105244;28;20261;-75
2023/09/29 06:11:15;;;;;;;12.70;9.85;;;;;;;16.62;59.67;99592.84;5105713;28;20040;-75
2023/09/29 06:13:43;;;;;;;12.75;9.50;;;;;;;16.65;59.54;99600.63;5104267;28;20093;-75
2023/09/29 06:16:12;;;;;;;14.15;10.68;;;;;;;16.73;59.39;99589.38;5105668;28;20040;-75
2023/09/29 06:18:38;;;;;;;13.45;8.90;;;;;;;16.77;58.88;99601.53;5065281;28;20041;-75
2023/09/29 06:21:05;;;;;;;18.95;9.38;;;;;;;16.79;58.63;99598.75;5065834;28;20300;-75
2023/09/29 06:23:32;;;;;;;11.85;10.65;;;;;;;16.78;59.16;99610.44;5067574;28;20044;-75
2023/09/29 06:26:00;;;;;;;14.73;9.75;;;;;;;16.48;58.80;99550.22;5068026;28;20094;-75
2023/09/29 06:28:26;;;;;;;14.35;10.98;;;;;;;15.94;58.76;99454.50;5068585;28;20301;-75
2023/09/29 06:30:55;;;;;;;12.30;10.65;;;;;;;16.89;58.78;99613.97;5068419;28;20057;-75
2023/09/29 06:33:24;;;;;;;14.77;10.23;;;;;;;16.85;58.22;99611.66;5050970;28;20296;-75
2023/09/29 06:35:50;;;;;;;9.82;8.80;;;;;;;16.86;57.73;99614.22;5067349;28;20102;-75
2023/09/29 06:38:17;;;;;;;12.65;8.95;;;;;;;16.66;58.08;99564.03;5068604;28;20177;-75
2023/09/29 06:40:44;;;;;;;15.10;10.07;;;;;;;17.06;57.89;99606.47;5068344;28;20044;-75
2023/09/29 06:43:11;;;;;;;12.63;9.32;;;;;;;16.90;57.74;99575.53;5068096;28;20048;-74
2023/09/29 06:45:38;;;;;;;12.75;9.27;;;;;;;17.11;55.78;99621.19;5068460;28;20041;-75
2023/09/29 06:48:05;;;;;;;10.32;8.18;;;;;;;17.03;55.21;99575.44;5068236;28;20090;-75
2023/09/29 06:50:33;;;;;;;13.88;8.20;;;;;;;17.28;55.63;99620.75;5067860;28;20057;-75
2023/09/29 06:53:00;;;;;;;10.90;8.35;;;;;;;17.34;55.40;99618.56;5068436;28;20048;-74
2023/09/29 06:55:27;;;;;;;10.65;7.68;;;;;;;17.34;55.64;99602.50;5068146;28;20041;-75
2023/09/29 06:57:54;;;;;;;9.32;7.40;;;;;;;17.48;54.46;99621.03;5066932;28;20051;-75
2023/09/29 07:00:21;;;;;;;9.90;7.70;;;;;;;17.52;55.05;99622.47;5067801;28;20090;-75
2023/09/29 07:02:49;;;;;;;8.82;7.93;;;;;;;17.54;54.62;99624.06;5068176;28;20064;-75
2023/09/29 07:05:17;;;;;;;8.85;6.93;;;;;;;17.52;53.38;99615.28;5067875;28;20276;-75
2023/09/29 07:07:45;;;;;;;11.27;7.00;;;;;;;17.40;53.26;99570.72;5067267;28;20048;-75
2023/09/29 07:10:12;;;;;;;8.18;6.10;;;;;;;17.74;54.17;99630.53;5068117;28;20048;-75
2023/09/29 07:12:39;;;;;;;8.95;7.10;;;;;;;17.58;53.99;99597.88;5050267;28;20072;-75
2023/09/29 07:15:07;;;;;;;8.23;7.38;;;;;;;17.82;53.61;99630.78;5066582;28;20044;-75
2023/09/29 07:17:34;;;;;;;11.27;7.32;;;;;;;17.82;53.83;99628.09;5089512;28;20070;-75
2023/09/29 07:20:01;;;;;;;10.50;8.52;;;;;;;17.93;53.85;99627.22;5107734;28;20052;-75
2023/09/29 07:22:28;;;;;;;14.90;9.50;;;;;;;18.03;53.18;99628.19;5107752;28;20058;-75
2023/09/29 07:24:57;;;;;;;8.65;7.28;;;;;;;18.18;52.01;99623.38;5106628;28;20040;-75
2023/09/29 07:27:24;;;;;;;10.27;8.18;;;;;;;18.30;51.88;99635.78;5107554;28;20056;-75
2023/09/29 07:29:51;;;;;;;10.07;7.40;;;;;;;18.38;51.68;99621.75;5106693;28;20040;-75
2023/09/29 07:32:18;;;;;;;10.25;7.88;;;;;;;18.53;50.58;99636.59;5107463;28;20089;-75
2023/09/29 07:34:45;;;;;;;9.40;7.90;;;;;;;18.66;50.60;99626.53;5106494;28;20040;-75
2023/09/29 07:37:11;;;;;;;10.05;7.15;;;;;;;18.62;51.36;99618.88;5107309;28;20039;-75
2023/09/29 07:39:38;;;;;;;12.73;7.85;;;;;;;18.71;51.08;99627.00;5107623;28;20071;-75
2023/09/29 07:42:06;;;;;;;10.18;7.30;;;;;;;18.88;49.94;99618.34;5107523;28;20059;-75
2023/09/29 07:44:36;;;;;;;9.35;7.13;;;;;;;18.94;50.79;99630.41;5106195;28;20111;-75
2023/09/29 07:47:03;;;;;;;10.23;7.18;;;;;;;18.89;50.67;99622.75;5107629;28;20111;-75
2023/09/29 07:49:29;;;;;;;9.48;7.15;;;;;;;18.79;49.90;99569.97;5106261;28;20058;-75
2023/09/29 07:51:57;;;;;;;9.30;6.90;;;;;;;19.00;49.26;99586.06;5107691;28;20050;-75
2023/09/29 07:54:24;;;;;;;8.90;6.85;;;;;;;19.18;50.45;99625.63;5107274;28;20040;-75
2023/09/29 07:56:51;;;;;;;8.75;6.78;;;;;;;19.18;50.50;99632.81;5107350;28;20051;-75
2023/09/29 07:59:19;;;;;;;9.85;6.78;;;;;;;19.26;49.73;99634.84;5106796;28;20060;-75
2023/09/29 08:01:49;;;;;;;9.23;6.72;;;;;;;19.26;50.17;99627.63;5089328;28;20074;-75
2023/09/29 08:04:17;;;;;;;10.98;6.65;;;;;;;19.05;49.61;99576.63;5105910;28;20375;-75
2023/09/29 08:06:43;;;;;;;8.13;6.40;;;;;;;19.49;48.54;99634.56;5106769;28;20051;-75
2023/09/29 08:09:12;;;;;;;8.93;6.18;;;;;;;19.48;48.96;99632.03;5105678;28;20102;-75
2023/09/29 08:11:39;;;;;;;9.15;7.00;;;;;;;19.61;48.48;99629.97;5089366;28;20079;-75
2023/09/29 08:14:06;;;;;;;8.50;5.93;;;;;;;19.75;46.87;99632.28;5106571;28;20044;-75
2023/09/29 08:16:34;;;;;;;8.65;6.10;;;;;;;19.90;46.94;99632.78;5106583;28;20044;-75
2023/09/29 08:19:01;;;;;;;8.80;5.65;;;;;;;19.98;46.69;99630.25;5088882;28;20319;-74
2023/09/29 08:21:27;;;;;;;8.43;6.40;;;;;;;19.94;47.19;99627.97;5105716;28;20204;-74
2023/09/29 08:23:54;;;;;;;7.63;5.60;;;;;;;20.16;45.47;99633.13;5106393;28;20085;-74
2023/09/29 08:26:21;;;;;;;9.25;5.93;;;;;;;20.28;46.19;99636.56;5106409;28;20040;-74
2023/09/29 08:28:48;;;;;;;11.20;5.57;;;;;;;19.93;46.46;99581.41;5106579;28;20309;-73
2023/09/29 08:31:15;;;;;;;9.32;5.25;;;;;;;20.23;46.72;99637.00;5107063;28;20234;-75
2023/09/29 08:33:44;;;;;;;9.82;5.90;;;;;;;20.31;46.23;99634.47;5106565;28;20040;-75
2023/09/29 08:36:11;;;;;;;7.10;5.88;;;;;;;20.44;45.84;99601.88;5106221;28;20040;-76
2023/09/29 08:38:38;;;;;;;8.68;5.10;;;;;;;20.49;46.83;99640.00;5088647;28;20093;-75
2023/09/29 08:41:06;;;;;;;7.22;4.93;;;;;;;20.53;45.99;99633.34;5106489;28;20059;-76
2023/09/29 08:43:34;;;;;;;6.13;5.00;;;;;;;20.47;45.90;99607.84;5105520;28;20307;-76
2023/09/29 08:46:01;;;;;;;6.65;5.13;;;;;;;20.71;44.58;99631.66;5106345;28;20242;-75
2023/09/29 08:48:29;;;;;;;9.00;5.03;;;;;;;20.89;43.56;99618.31;5105197;28;20055;-76
2023/09/29 08:51:01;;;;;;;11.05;6.30;;;;;;;20.86;44.38;99596.19;5106010;28;20063;-73
2023/09/29 08:53:29;;;;;;;5.47;4.88;;;;;;;21.14;43.52;99639.28;5106495;28;20322;-73
2023/09/29 08:55:56;;;;;;;5.93;4.65;;;;;;;21.17;43.89;99630.06;5105236;28;20122;-73
2023/09/29 08:58:24;;;;;;;6.78;4.72;;;;;;;21.17;44.52;99630.06;5105824;28;20044;-74
2023/09/29 09:00:52;;;;;;;10.73;5.53;;;;;;;21.21;44.08;99633.31;5104667;28;20123;-74
2023/09/29 09:03:19;;;;;;;7.10;5.28;;;;;;;21.34;44.33;99623.91;5105058;28;20054;-74
2023/09/29 09:05:45;;;;;;;7.75;5.47;;;;;;;21.24;44.10;99603.38;5105436;28;20291;-74
2023/09/29 09:08:15;;;;;;;9.98;5.63;;;;;;;21.54;43.77;99634.63;5106279;28;20066;-74
2023/09/29 09:10:43;;;;;;;6.10;5.40;;;;;;;21.57;42.64;99634.31;5106221;28;20046;-74
2023/09/29 09:13:09;;;;;;;8.32;5.90;;;;;;;21.85;42.07;99629.84;5105576;28;20204;-74
2023/09/29 09:15:37;;;;;;;6.25;5.38;;;;;;;21.90;43.00;99635.63;5104755;28;20047;-74
2023/09/29 09:18:04;;;;;;;6.68;5.43;;;;;;;21.87;43.67;99631.38;5105388;28;20060;-74
2023/09/29 09:20:31;;;;;;;5.72;5.03;;;;;;;21.92;43.03;99628.25;5105465;28;20055;-74
2023/09/29 09:22:59;;;;;;;9.63;6.07;;;;;;;21.88;42.20;99610.66;5105767;28;20052;-74
2023/09/29 09:25:46;;;;;;;8.07;5.15;;;;;;;22.31;41.27;99634.25;5105830;28;20040;-74
2023/09/29 09:28:16;;;;;;;10.00;5.53;;;;;;;22.39;41.10;99620.81;5105397;28;20193;-74
2023/09/29 09:30:43;;;;;;;9.52;5.90;;;;;;;22.19;40.99;99586.88;5106029;28;20198;-74
2023/09/29 09:33:18;;;;;;;8.60;4.82;;;;;;;22.45;41.37;99625.66;5105838;28;20036;-74
2023/09/29 09:35:45;;;;;;;10.45;5.60;;;;;;;22.61;41.52;99630.38;5088016;28;20131;-75
2023/09/29 09:38:12;;;;;;;7.40;4.65;;;;;;;22.68;41.71;99623.34;5105293;28;20040;-74
2023/09/29 09:40:42;;;;;;;6.60;5.15;;;;;;;22.68;41.84;99631.47;5104566;28;20101;-75
2023/09/29 09:43:10;;;;;;;7.30;4.78;;;;;;;22.48;41.45;99603.72;5105140;28;20043;-75
2023/09/29 09:45:39;;;;;;;9.18;5.65;;;;;;;22.80;41.26;99623.97;5105227;28;20084;-75
2023/09/29 09:48:07;;;;;;;7.85;6.55;;;;;;;21.67;40.75;99412.13;5105611;28;20296;-75
2023/09/29 09:50:36;;;;;;;11.25;6.43;;;;;;;23.03;40.20;99617.06;5105641;28;20051;-74
2023/09/29 09:53:05;;;;;;;11.13;5.70;;;;;;;23.19;41.28;99613.63;5104471;28;20127;-75
2023/09/29 09:55:39;;;;;;;5.20;4.70;;;;;;;23.27;39.82;99609.16;5108240;28;20097;-75
2023/09/29 09:58:17;;;;;;;7.57;4.95;;;;;;;22.81;39.63;99544.59;5109521;28;20048;-75
2023/09/29 10:00:45;;;;;;;7.10;4.78;;;;;;;23.40;38.68;99602.47;5108312;28;20036;-75
2023/09/29 10:03:16;;;;;;;6.85;4.97;;;;;;;23.45;38.85;99598.25;5109828;28;20059;-75
2023/09/29 10:05:51;;;;;;;8.18;5.45;;;;;;;23.47;39.34;99601.66;5108227;28;20036;-75
2023/09/29 10:08:25;;;;;;;7.45;4.97;;;;;;;23.53;39.41;99603.72;5109641;28;20063;-75
2023/09/29 10:10:52;;;;;;;7.70;4.72;;;;;;;23.33;38.73;99556.28;5109250;28;20035;-75
2023/09/29 10:13:21;;;;;;;6.43;5.05;;;;;;;23.72;38.50;99601.75;5108358;28;20110;-75
2023/09/29 10:15:56;;;;;;;8.27;4.65;;;;;;;22.74;40.24;99460.63;5109039;28;20349;-75
2023/09/29 10:18:23;;;;;;;6.55;4.35;;;;;;;23.80;39.47;99593.69;5108122;28;20257;-75
2023/09/29 10:20:55;;;;;;;10.98;5.22;;;;;;;23.84;37.88;99600.47;5109189;28;20044;-75
2023/09/29 10:23:25;;;;;;;7.97;5.20;;;;;;;23.76;39.79;99601.28;5108977;28;20040;-75
2023/09/29 10:25:59;;;;;;;8.52;4.85;;;;;;;23.88;38.89;99601.84;5108556;28;20248;-75
2023/09/29 10:28:32;;;;;;;;;;;;;;;23.99;39.23;99594.28;5091747;28;20053;-75
2023/09/29 10:31:08;;;;;;;6.70;4.82;;;;;;;24.04;37.72;99599.22;5108664;28;19926;-75
2023/09/29 10:33:52;;;;;;;5.90;4.72;;;;;;;23.97;38.45;99598.19;5107754;28;20190;-75
2023/09/29 10:36:20;;;;;;;7.30;5.07;;;;;;;24.10;38.46;99587.72;5107756;28;20040;-75
2023/09/29 10:38:47;;;;;;;6.55;5.43;;;;;;;24.32;38.27;99592.50;5108498;28;20299;-75
2023/09/29 10:41:15;;;;;;;9.95;5.35;;;;;;;24.07;39.29;99546.59;5108356;28;20315;-75
2023/09/29 10:43:47;;;;;;;8.60;4.93;;;;;;;24.29;38.74;99560.34;5108296;28;20044;-75
2023/09/29 10:46:16;;;;;;;8.18;5.10;;;;;;;24.30;36.11;99583.69;5107460;28;20252;-75
2023/09/29 10:48:46;;;;;;;10.30;5.10;;;;;;;24.38;37.20;99582.00;5107485;28;20044;-75
2023/09/29 10:51:24;;;;;;;7.45;4.78;;;;;;;24.07;36.67;99517.66;5108465;28;20064;-75
2023/09/29 10:53:50;;;;;;;7.10;4.90;;;;;;;24.61;37.16;99570.34;5107431;28;20081;-75
2023/09/29 10:56:21;;;;;;;8.10;4.53;;;;;;;24.64;37.62;99574.59;5108488;28;20322;-75
2023/09/29 10:58:52;;;;;;;5.65;4.57;;;;;;;24.50;36.63;99546.31;5108538;28;20048;-75
2023/09/29 11:01:20;;;;;;;5.97;4.03;;;;;;;24.51;37.61;99520.06;5108147;28;20070;-75
2023/09/29 11:03:48;;;;;;;8.32;4.50;;;;;;;24.81;37.00;99557.34;5108360;28;20047;-75
2023/09/29 11:06:17;;;;;;;8.35;5.55;;;;;;;24.82;37.78;99545.47;5106511;28;20115;-75
2023/09/29 11:08:52;;;;;;;5.72;4.03;;;;;;;24.70;37.43;99533.28;5107561;28;20055;-75
2023/09/29 11:11:19;;;;;;;10.13;5.03;;;;;;;24.84;36.07;99546.16;5108075;28;20054;-75
2023/09/29 11:13:55;;;;;;;10.75;5.05;;;;;;;24.84;34.59;99520.91;5108033;28;20204;-75
2023/09/29 11:16:25;;;;;;;7.15;5.00;;;;;;;24.72;36.05;99503.31;5108063;28;20046;-75
2023/09/29 11:18:56;;;;;;;7.72;4.30;;;;;;;24.96;36.04;99535.78;5108294;28;20048;-74
2023/09/29 11:21:33;;;;;;;8.50;4.75;;;;;;;24.90;34.08;99534.63;5107196;28;20226;-75
2023/09/29 11:24:05;;;;;;;11.43;5.30;;;;;;;25.04;33.71;99534.97;5107950;28;20044;-75
2023/09/29 11:26:32;;;;;;;9.60;5.38;;;;;;;25.05;34.21;99525.81;5107771;28;20284;-75
2023/09/29 11:29:00;;;;;;;6.90;5.07;;;;;;;25.10;34.82;99529.69;5107611;28;20237;-75
2023/09/29 11:31:27;;;;;;;8.65;4.35;;;;;;;25.28;33.47;99515.91;5107779;28;20094;-75
2023/09/29 11:33:54;;;;;;;4.60;4.03;;;;;;;25.06;34.74;99492.25;5106966;28;20036;-75